This is the latest recevied weather packets stored in our database for station/object W6TKD-13. If no packets are shown the sender has not sent any weather packets the latest 10 day(s).
| Time | Temp. | Humidity | Pressure | Rain* | Wind** | Luminosity | Snow |
|---|---|---|---|---|---|---|---|
| 1777660490 | 35° C | 33% | 1014.2 hPa | 0 mm | - | - | - |
| 1777659824 | 36.67° C | 32% | 1014.3 hPa | 0 mm | - | - | - |
| 1777659157 | 37.22° C | 32% | 1014.2 hPa | 0 mm | - | - | - |
| 1777658490 | 37.22° C | 32% | 1014.3 hPa | 0 mm | - | - | - |
| 1777657823 | 37.78° C | 33% | 1014.3 hPa | 0 mm | - | - | - |
| 1777657155 | 37.78° C | 33% | 1014.3 hPa | 0 mm | - | - | - |
| 1777655821 | 37.22° C | 34% | 1014.3 hPa | 0 mm | - | - | - |
| 1777653821 | 35° C | 37% | 1014.3 hPa | 0 mm | - | - | - |
| 1777653154 | 33.33° C | 39% | 1014.3 hPa | 0 mm | - | - | - |
| 1777652487 | 30.56° C | 42% | 1014.3 hPa | 0 mm | - | - | - |
| 1777651821 | 27.22° C | 45% | 1014.4 hPa | 0 mm | - | - | - |
| 1777651152 | 23.33° C | 49% | 1014.6 hPa | 0 mm | - | - | - |
| 1777650485 | 18.89° C | 54% | 1014.6 hPa | 0 mm | - | - | - |
| 1777649819 | 15° C | 55% | 1014.5 hPa | 0 mm | - | - | - |
| 1777649151 | 13.89° C | 54% | 1014.6 hPa | 0 mm | - | - | - |
| 1777648484 | 12.78° C | 55% | 1014.5 hPa | 0 mm | - | - | - |
| 1777647819 | 12.22° C | 54% | 1014.5 hPa | 0 mm | - | - | - |
| 1777647151 | 11.11° C | 54% | 1014.5 hPa | 0 mm | - | - | - |
| 1777646485 | 10.56° C | 54% | 1014.4 hPa | 0 mm | - | - | - |
| 1777645818 | 10° C | 54% | 1014.4 hPa | 0 mm | - | - | - |
| 1777645150 | 9.44° C | 54% | 1014.3 hPa | 0 mm | - | - | - |
| 1777644483 | 9.44° C | 54% | 1014.3 hPa | 0 mm | - | - | - |
| 1777643815 | 9.44° C | 53% | 1014.1 hPa | 0 mm | - | - | - |
| 1777643148 | 8.89° C | 53% | 1014.1 hPa | 0 mm | - | - | - |
| 1777642482 | 8.89° C | 53% | 1013.9 hPa | 0 mm | - | - | - |
* Rain since midnight (hover to see other rain measurements)
** Current wind speed in m/s (hover to see current wind gust speed)